sensor_id;sensor_type;location;lat;lon;timestamp;temperature;humidity
54429;DHT22;40337;52.978;6.310;2022-08-01T00:01:49;18.50;99.90
54429;DHT22;40337;52.978;6.310;2022-08-01T00:04:14;18.50;99.90
54429;DHT22;40337;52.978;6.310;2022-08-01T00:06:40;18.50;99.90
54429;DHT22;40337;52.978;6.310;2022-08-01T00:09:06;18.40;99.90
54429;DHT22;40337;52.978;6.310;2022-08-01T00:11:31;18.50;99.90
54429;DHT22;40337;52.978;6.310;2022-08-01T00:13:57;18.50;99.90
54429;DHT22;40337;52.978;6.310;2022-08-01T00:16:22;18.50;99.90
54429;DHT22;40337;52.978;6.310;2022-08-01T00:18:49;18.50;99.90
54429;DHT22;40337;52.978;6.310;2022-08-01T00:21:15;18.50;99.90
54429;DHT22;40337;52.978;6.310;2022-08-01T00:23:41;18.50;99.90
54429;DHT22;40337;52.978;6.310;2022-08-01T00:26:06;18.50;99.90
54429;DHT22;40337;52.978;6.310;2022-08-01T00:28:32;18.50;99.90
54429;DHT22;40337;52.978;6.310;2022-08-01T00:30:58;18.40;99.90
54429;DHT22;40337;52.978;6.310;2022-08-01T00:33:23;18.40;99.90
54429;DHT22;40337;52.978;6.310;2022-08-01T00:35:49;18.40;99.90
54429;DHT22;40337;52.978;6.310;2022-08-01T00:38:14;18.40;99.90
54429;DHT22;40337;52.978;6.310;2022-08-01T00:40:40;18.40;99.90
54429;DHT22;40337;52.978;6.310;2022-08-01T00:43:06;18.40;99.90
54429;DHT22;40337;52.978;6.310;2022-08-01T00:45:31;18.40;99.90
54429;DHT22;40337;52.978;6.310;2022-08-01T00:47:57;18.40;99.90
54429;DHT22;40337;52.978;6.310;2022-08-01T00:50:23;18.40;99.90
54429;DHT22;40337;52.978;6.310;2022-08-01T00:52:49;18.40;99.90
54429;DHT22;40337;52.978;6.310;2022-08-01T00:55:15;18.40;99.90
54429;DHT22;40337;52.978;6.310;2022-08-01T00:57:43;18.40;99.90
54429;DHT22;40337;52.978;6.310;2022-08-01T01:00:09;18.40;99.90
54429;DHT22;40337;52.978;6.310;2022-08-01T01:02:35;18.40;99.90
54429;DHT22;40337;52.978;6.310;2022-08-01T01:05:01;18.30;99.90
54429;DHT22;40337;52.978;6.310;2022-08-01T01:07:56;18.30;99.90
54429;DHT22;40337;52.978;6.310;2022-08-01T01:10:46;18.30;99.90
54429;DHT22;40337;52.978;6.310;2022-08-01T01:13:20;18.30;99.90
54429;DHT22;40337;52.978;6.310;2022-08-01T01:15:55;18.30;99.90
54429;DHT22;40337;52.978;6.310;2022-08-01T01:18:42;18.30;99.90
54429;DHT22;40337;52.978;6.310;2022-08-01T01:23:50;18.30;99.90
54429;DHT22;40337;52.978;6.310;2022-08-01T01:26:40;18.30;99.90
54429;DHT22;40337;52.978;6.310;2022-08-01T01:29:16;18.30;99.90
54429;DHT22;40337;52.978;6.310;2022-08-01T01:31:48;18.30;99.90
54429;DHT22;40337;52.978;6.310;2022-08-01T01:34:17;18.30;99.90
54429;DHT22;40337;52.978;6.310;2022-08-01T01:36:43;18.30;99.90
54429;DHT22;40337;52.978;6.310;2022-08-01T01:39:11;18.30;99.90
54429;DHT22;40337;52.978;6.310;2022-08-01T01:41:37;18.30;99.90
54429;DHT22;40337;52.978;6.310;2022-08-01T01:44:04;18.30;99.90
54429;DHT22;40337;52.978;6.310;2022-08-01T01:46:31;18.30;99.90
54429;DHT22;40337;52.978;6.310;2022-08-01T01:48:58;18.30;99.90
54429;DHT22;40337;52.978;6.310;2022-08-01T01:51:25;18.30;99.90
54429;DHT22;40337;52.978;6.310;2022-08-01T01:53:53;18.30;99.90
54429;DHT22;40337;52.978;6.310;2022-08-01T01:56:20;18.30;99.90
54429;DHT22;40337;52.978;6.310;2022-08-01T01:58:50;18.30;99.90
54429;DHT22;40337;52.978;6.310;2022-08-01T02:01:17;18.30;99.90
54429;DHT22;40337;52.978;6.310;2022-08-01T02:03:43;18.30;99.90
54429;DHT22;40337;52.978;6.310;2022-08-01T02:06:12;18.30;99.90
54429;DHT22;40337;52.978;6.310;2022-08-01T02:08:40;18.20;99.90
54429;DHT22;40337;52.978;6.310;2022-08-01T02:11:07;18.20;99.90
54429;DHT22;40337;52.978;6.310;2022-08-01T02:13:48;18.10;99.90
54429;DHT22;40337;52.978;6.310;2022-08-01T02:16:16;18.10;99.90
54429;DHT22;40337;52.978;6.310;2022-08-01T02:18:42;18.00;99.90
54429;DHT22;40337;52.978;6.310;2022-08-01T02:21:09;18.00;99.90
54429;DHT22;40337;52.978;6.310;2022-08-01T02:23:39;18.00;99.90
54429;DHT22;40337;52.978;6.310;2022-08-01T02:26:13;18.00;99.90
54429;DHT22;40337;52.978;6.310;2022-08-01T02:29:00;18.00;99.90
54429;DHT22;40337;52.978;6.310;2022-08-01T02:31:29;18.00;99.90
54429;DHT22;40337;52.978;6.310;2022-08-01T02:34:01;18.00;99.90
54429;DHT22;40337;52.978;6.310;2022-08-01T02:36:33;18.00;99.90
54429;DHT22;40337;52.978;6.310;2022-08-01T02:39:03;17.90;99.90
54429;DHT22;40337;52.978;6.310;2022-08-01T02:41:30;17.90;99.90
54429;DHT22;40337;52.978;6.310;2022-08-01T02:44:00;17.90;99.90
54429;DHT22;40337;52.978;6.310;2022-08-01T02:46:35;17.90;99.90
54429;DHT22;40337;52.978;6.310;2022-08-01T02:49:02;17.90;99.90
54429;DHT22;40337;52.978;6.310;2022-08-01T02:51:29;17.90;99.90
54429;DHT22;40337;52.978;6.310;2022-08-01T02:53:57;17.80;99.90
54429;DHT22;40337;52.978;6.310;2022-08-01T02:56:25;17.80;99.90
54429;DHT22;40337;52.978;6.310;2022-08-01T02:59:01;17.90;99.90
54429;DHT22;40337;52.978;6.310;2022-08-01T03:01:28;17.80;99.90
54429;DHT22;40337;52.978;6.310;2022-08-01T03:03:53;17.80;99.90
54429;DHT22;40337;52.978;6.310;2022-08-01T03:06:20;17.80;99.90
54429;DHT22;40337;52.978;6.310;2022-08-01T03:08:46;17.80;99.90
54429;DHT22;40337;52.978;6.310;2022-08-01T03:11:14;17.80;99.90
54429;DHT22;40337;52.978;6.310;2022-08-01T03:13:41;17.80;99.90
54429;DHT22;40337;52.978;6.310;2022-08-01T03:16:09;17.70;99.90
54429;DHT22;40337;52.978;6.310;2022-08-01T03:18:37;17.70;99.90
54429;DHT22;40337;52.978;6.310;2022-08-01T03:21:04;17.70;99.90
54429;DHT22;40337;52.978;6.310;2022-08-01T03:23:32;17.70;99.90
54429;DHT22;40337;52.978;6.310;2022-08-01T03:25:59;17.70;99.90
54429;DHT22;40337;52.978;6.310;2022-08-01T03:28:26;17.70;99.90
54429;DHT22;40337;52.978;6.310;2022-08-01T03:30:52;17.70;99.90
54429;DHT22;40337;52.978;6.310;2022-08-01T03:33:18;17.70;99.90
54429;DHT22;40337;52.978;6.310;2022-08-01T03:35:50;17.70;99.90
54429;DHT22;40337;52.978;6.310;2022-08-01T03:38:22;17.70;99.90
54429;DHT22;40337;52.978;6.310;2022-08-01T03:41:10;17.70;99.90
54429;DHT22;40337;52.978;6.310;2022-08-01T03:43:49;17.70;99.90
54429;DHT22;40337;52.978;6.310;2022-08-01T03:46:20;17.70;99.90
54429;DHT22;40337;52.978;6.310;2022-08-01T03:48:48;17.60;99.90
54429;DHT22;40337;52.978;6.310;2022-08-01T03:51:17;17.60;99.90
54429;DHT22;40337;52.978;6.310;2022-08-01T03:53:45;17.60;99.90
54429;DHT22;40337;52.978;6.310;2022-08-01T03:56:14;17.60;99.90
54429;DHT22;40337;52.978;6.310;2022-08-01T03:58:42;17.60;99.90
54429;DHT22;40337;52.978;6.310;2022-08-01T04:01:09;17.60;99.90
54429;DHT22;40337;52.978;6.310;2022-08-01T04:03:35;17.60;99.90
54429;DHT22;40337;52.978;6.310;2022-08-01T04:06:07;17.60;99.90
54429;DHT22;40337;52.978;6.310;2022-08-01T04:08:40;17.60;99.90
54429;DHT22;40337;52.978;6.310;2022-08-01T04:11:07;17.60;99.90
54429;DHT22;40337;52.978;6.310;2022-08-01T04:13:33;17.50;99.90
54429;DHT22;40337;52.978;6.310;2022-08-01T04:15:59;17.50;99.90
54429;DHT22;40337;52.978;6.310;2022-08-01T04:18:25;17.50;99.90
54429;DHT22;40337;52.978;6.310;2022-08-01T04:20:51;17.60;99.90
54429;DHT22;40337;52.978;6.310;2022-08-01T04:23:20;17.50;99.90
54429;DHT22;40337;52.978;6.310;2022-08-01T04:25:50;17.50;99.90
54429;DHT22;40337;52.978;6.310;2022-08-01T04:28:17;17.60;99.90
54429;DHT22;40337;52.978;6.310;2022-08-01T04:30:46;17.50;99.90
54429;DHT22;40337;52.978;6.310;2022-08-01T04:33:14;17.50;99.90
54429;DHT22;40337;52.978;6.310;2022-08-01T04:35:44;17.50;99.90
54429;DHT22;40337;52.978;6.310;2022-08-01T04:38:12;17.50;99.90
54429;DHT22;40337;52.978;6.310;2022-08-01T04:40:40;17.50;99.90
54429;DHT22;40337;52.978;6.310;2022-08-01T04:43:06;17.50;99.90
54429;DHT22;40337;52.978;6.310;2022-08-01T04:45:33;17.50;99.90
54429;DHT22;40337;52.978;6.310;2022-08-01T04:48:00;17.40;99.90
54429;DHT22;40337;52.978;6.310;2022-08-01T04:50:26;17.40;99.90
54429;DHT22;40337;52.978;6.310;2022-08-01T04:52:52;17.40;99.90
54429;DHT22;40337;52.978;6.310;2022-08-01T04:55:17;17.30;99.90
54429;DHT22;40337;52.978;6.310;2022-08-01T04:57:45;17.40;99.90
54429;DHT22;40337;52.978;6.310;2022-08-01T05:00:12;17.40;99.90
54429;DHT22;40337;52.978;6.310;2022-08-01T05:02:38;17.40;99.90
54429;DHT22;40337;52.978;6.310;2022-08-01T05:05:04;17.40;99.90
54429;DHT22;40337;52.978;6.310;2022-08-01T05:07:32;17.40;99.90
54429;DHT22;40337;52.978;6.310;2022-08-01T05:09:58;17.40;99.90
54429;DHT22;40337;52.978;6.310;2022-08-01T05:12:24;17.40;99.90
54429;DHT22;40337;52.978;6.310;2022-08-01T05:14:49;17.40;99.90
54429;DHT22;40337;52.978;6.310;2022-08-01T05:17:16;17.30;99.90
54429;DHT22;40337;52.978;6.310;2022-08-01T05:19:42;17.40;99.90
54429;DHT22;40337;52.978;6.310;2022-08-01T05:22:08;17.40;99.90
54429;DHT22;40337;52.978;6.310;2022-08-01T05:24:36;17.30;99.90
54429;DHT22;40337;52.978;6.310;2022-08-01T05:27:03;17.30;99.90
54429;DHT22;40337;52.978;6.310;2022-08-01T05:29:29;17.30;99.90
54429;DHT22;40337;52.978;6.310;2022-08-01T05:31:55;17.30;99.90
54429;DHT22;40337;52.978;6.310;2022-08-01T05:34:21;17.30;99.90
54429;DHT22;40337;52.978;6.310;2022-08-01T05:36:46;17.20;99.90
54429;DHT22;40337;52.978;6.310;2022-08-01T05:39:13;17.20;99.90
54429;DHT22;40337;52.978;6.310;2022-08-01T05:41:39;17.20;99.90
54429;DHT22;40337;52.978;6.310;2022-08-01T05:44:05;17.20;99.90
54429;DHT22;40337;52.978;6.310;2022-08-01T05:46:31;17.20;99.90
54429;DHT22;40337;52.978;6.310;2022-08-01T05:48:57;17.20;99.90
54429;DHT22;40337;52.978;6.310;2022-08-01T05:51:23;17.20;99.90
54429;DHT22;40337;52.978;6.310;2022-08-01T05:53:49;17.20;99.90
54429;DHT22;40337;52.978;6.310;2022-08-01T05:56:15;17.20;99.90
54429;DHT22;40337;52.978;6.310;2022-08-01T05:58:40;17.20;99.90
54429;DHT22;40337;52.978;6.310;2022-08-01T06:01:06;17.20;99.90
54429;DHT22;40337;52.978;6.310;2022-08-01T06:03:31;17.20;99.90
54429;DHT22;40337;52.978;6.310;2022-08-01T06:06:02;17.30;99.90
54429;DHT22;40337;52.978;6.310;2022-08-01T06:08:28;17.30;99.90
54429;DHT22;40337;52.978;6.310;2022-08-01T06:10:53;17.30;99.90
54429;DHT22;40337;52.978;6.310;2022-08-01T06:13:19;17.30;99.90
54429;DHT22;40337;52.978;6.310;2022-08-01T06:15:46;17.30;99.90
54429;DHT22;40337;52.978;6.310;2022-08-01T06:18:12;17.30;99.90
54429;DHT22;40337;52.978;6.310;2022-08-01T06:20:39;17.30;99.90
54429;DHT22;40337;52.978;6.310;2022-08-01T06:23:05;17.30;99.90
54429;DHT22;40337;52.978;6.310;2022-08-01T06:25:31;17.30;99.90
54429;DHT22;40337;52.978;6.310;2022-08-01T06:27:56;17.30;99.90
54429;DHT22;40337;52.978;6.310;2022-08-01T06:30:22;17.30;99.90
54429;DHT22;40337;52.978;6.310;2022-08-01T06:32:47;17.30;99.90
54429;DHT22;40337;52.978;6.310;2022-08-01T06:35:14;17.30;99.90
54429;DHT22;40337;52.978;6.310;2022-08-01T06:37:40;17.30;99.90
54429;DHT22;40337;52.978;6.310;2022-08-01T06:40:10;17.30;99.90
54429;DHT22;40337;52.978;6.310;2022-08-01T06:42:37;17.30;99.90
54429;DHT22;40337;52.978;6.310;2022-08-01T06:45:08;17.30;99.90
54429;DHT22;40337;52.978;6.310;2022-08-01T06:47:33;17.30;99.90
54429;DHT22;40337;52.978;6.310;2022-08-01T06:49:59;17.30;99.90
54429;DHT22;40337;52.978;6.310;2022-08-01T06:52:25;17.40;99.90
54429;DHT22;40337;52.978;6.310;2022-08-01T06:54:51;17.40;99.90
54429;DHT22;40337;52.978;6.310;2022-08-01T06:57:17;17.40;99.90
54429;DHT22;40337;52.978;6.310;2022-08-01T06:59:43;17.40;99.90
54429;DHT22;40337;52.978;6.310;2022-08-01T07:02:09;17.40;99.90
54429;DHT22;40337;52.978;6.310;2022-08-01T07:04:34;17.50;99.90
54429;DHT22;40337;52.978;6.310;2022-08-01T07:07:00;17.40;99.90
54429;DHT22;40337;52.978;6.310;2022-08-01T07:09:26;17.50;99.90
54429;DHT22;40337;52.978;6.310;2022-08-01T07:11:52;17.50;99.90
54429;DHT22;40337;52.978;6.310;2022-08-01T07:14:20;17.60;99.90
54429;DHT22;40337;52.978;6.310;2022-08-01T07:16:45;17.60;99.90
54429;DHT22;40337;52.978;6.310;2022-08-01T07:19:11;17.70;99.90
54429;DHT22;40337;52.978;6.310;2022-08-01T07:21:38;17.70;99.90
54429;DHT22;40337;52.978;6.310;2022-08-01T07:24:04;17.80;99.90
54429;DHT22;40337;52.978;6.310;2022-08-01T07:26:30;17.90;99.90
54429;DHT22;40337;52.978;6.310;2022-08-01T07:28:56;17.90;99.90
54429;DHT22;40337;52.978;6.310;2022-08-01T07:31:21;18.00;99.90
54429;DHT22;40337;52.978;6.310;2022-08-01T07:33:48;18.00;99.90
54429;DHT22;40337;52.978;6.310;2022-08-01T07:36:14;18.10;99.90
54429;DHT22;40337;52.978;6.310;2022-08-01T07:38:39;18.10;99.90
54429;DHT22;40337;52.978;6.310;2022-08-01T07:41:05;18.20;99.90
54429;DHT22;40337;52.978;6.310;2022-08-01T07:43:30;18.20;99.90
54429;DHT22;40337;52.978;6.310;2022-08-01T07:45:57;18.30;99.90
54429;DHT22;40337;52.978;6.310;2022-08-01T07:48:22;18.40;99.90
54429;DHT22;40337;52.978;6.310;2022-08-01T07:50:50;18.40;99.90
54429;DHT22;40337;52.978;6.310;2022-08-01T07:53:16;18.70;99.90
54429;DHT22;40337;52.978;6.310;2022-08-01T07:55:42;18.90;99.90
54429;DHT22;40337;52.978;6.310;2022-08-01T07:58:07;18.90;99.90
54429;DHT22;40337;52.978;6.310;2022-08-01T08:00:33;19.10;99.90
54429;DHT22;40337;52.978;6.310;2022-08-01T08:02:59;19.00;99.90
54429;DHT22;40337;52.978;6.310;2022-08-01T08:05:25;19.30;99.90
54429;DHT22;40337;52.978;6.310;2022-08-01T08:07:51;19.30;99.90
54429;DHT22;40337;52.978;6.310;2022-08-01T08:10:17;19.40;99.90
54429;DHT22;40337;52.978;6.310;2022-08-01T08:12:42;19.30;99.90
54429;DHT22;40337;52.978;6.310;2022-08-01T08:15:09;19.30;99.90
54429;DHT22;40337;52.978;6.310;2022-08-01T08:17:34;19.50;99.90
54429;DHT22;40337;52.978;6.310;2022-08-01T08:20:01;19.90;99.90
54429;DHT22;40337;52.978;6.310;2022-08-01T08:22:27;20.20;99.90
54429;DHT22;40337;52.978;6.310;2022-08-01T08:24:53;20.30;99.90
54429;DHT22;40337;52.978;6.310;2022-08-01T08:27:18;20.40;99.90
54429;DHT22;40337;52.978;6.310;2022-08-01T08:29:44;20.20;99.90
54429;DHT22;40337;52.978;6.310;2022-08-01T08:32:09;20.40;99.90
54429;DHT22;40337;52.978;6.310;2022-08-01T08:34:35;20.40;99.90
54429;DHT22;40337;52.978;6.310;2022-08-01T08:37:01;20.50;99.90
54429;DHT22;40337;52.978;6.310;2022-08-01T08:39:26;20.40;99.90
54429;DHT22;40337;52.978;6.310;2022-08-01T08:41:55;20.50;99.90
54429;DHT22;40337;52.978;6.310;2022-08-01T08:44:21;20.60;99.90
54429;DHT22;40337;52.978;6.310;2022-08-01T08:46:49;20.70;99.90
54429;DHT22;40337;52.978;6.310;2022-08-01T08:49:22;21.00;99.90
54429;DHT22;40337;52.978;6.310;2022-08-01T08:51:50;21.20;99.90
54429;DHT22;40337;52.978;6.310;2022-08-01T08:54:18;21.50;99.90
54429;DHT22;40337;52.978;6.310;2022-08-01T08:56:46;21.60;99.90
54429;DHT22;40337;52.978;6.310;2022-08-01T08:59:13;21.80;99.90
54429;DHT22;40337;52.978;6.310;2022-08-01T09:01:39;22.00;99.90
54429;DHT22;40337;52.978;6.310;2022-08-01T09:04:05;22.00;99.90
54429;DHT22;40337;52.978;6.310;2022-08-01T09:06:32;21.80;99.90
54429;DHT22;40337;52.978;6.310;2022-08-01T09:08:58;22.00;99.90
54429;DHT22;40337;52.978;6.310;2022-08-01T09:11:24;22.10;99.90
54429;DHT22;40337;52.978;6.310;2022-08-01T09:16:36;22.70;99.90
54429;DHT22;40337;52.978;6.310;2022-08-01T09:19:19;22.80;99.90
54429;DHT22;40337;52.978;6.310;2022-08-01T09:24:21;22.40;99.90
54429;DHT22;40337;52.978;6.310;2022-08-01T09:26:47;22.50;99.90
54429;DHT22;40337;52.978;6.310;2022-08-01T09:29:28;22.60;99.90
54429;DHT22;40337;52.978;6.310;2022-08-01T09:31:55;22.80;99.90
54429;DHT22;40337;52.978;6.310;2022-08-01T09:34:26;23.00;99.90
54429;DHT22;40337;52.978;6.310;2022-08-01T09:36:54;23.10;99.90
54429;DHT22;40337;52.978;6.310;2022-08-01T09:39:30;23.30;99.90
54429;DHT22;40337;52.978;6.310;2022-08-01T09:41:58;23.40;99.90
54429;DHT22;40337;52.978;6.310;2022-08-01T09:44:42;23.60;99.90
54429;DHT22;40337;52.978;6.310;2022-08-01T09:47:08;23.90;99.90
54429;DHT22;40337;52.978;6.310;2022-08-01T09:49:36;23.80;99.90
54429;DHT22;40337;52.978;6.310;2022-08-01T09:52:16;23.60;99.90
54429;DHT22;40337;52.978;6.310;2022-08-01T09:54:43;23.90;99.90
54429;DHT22;40337;52.978;6.310;2022-08-01T09:57:18;23.70;99.90
54429;DHT22;40337;52.978;6.310;2022-08-01T09:59:46;23.50;99.90
54429;DHT22;40337;52.978;6.310;2022-08-01T10:02:14;23.60;99.90
54429;DHT22;40337;52.978;6.310;2022-08-01T10:04:52;23.40;99.90
54429;DHT22;40337;52.978;6.310;2022-08-01T10:07:18;23.50;99.90
54429;DHT22;40337;52.978;6.310;2022-08-01T10:09:45;23.70;99.90
54429;DHT22;40337;52.978;6.310;2022-08-01T10:12:14;23.90;99.90
54429;DHT22;40337;52.978;6.310;2022-08-01T10:14:40;24.00;99.90
54429;DHT22;40337;52.978;6.310;2022-08-01T10:17:09;23.90;99.50
54429;DHT22;40337;52.978;6.310;2022-08-01T10:19:35;23.70;99.90
54429;DHT22;40337;52.978;6.310;2022-08-01T10:22:06;23.60;99.90
54429;DHT22;40337;52.978;6.310;2022-08-01T10:24:37;23.80;99.90
54429;DHT22;40337;52.978;6.310;2022-08-01T10:27:07;24.00;99.20
54429;DHT22;40337;52.978;6.310;2022-08-01T10:29:42;23.90;99.30
54429;DHT22;40337;52.978;6.310;2022-08-01T10:32:09;23.90;99.40
54429;DHT22;40337;52.978;6.310;2022-08-01T10:34:35;24.00;99.90
54429;DHT22;40337;52.978;6.310;2022-08-01T10:37:02;24.20;99.30
54429;DHT22;40337;52.978;6.310;2022-08-01T10:39:28;24.50;99.80
54429;DHT22;40337;52.978;6.310;2022-08-01T10:41:55;24.50;98.30
54429;DHT22;40337;52.978;6.310;2022-08-01T10:44:25;24.20;98.30
54429;DHT22;40337;52.978;6.310;2022-08-01T10:46:55;23.80;97.50
54429;DHT22;40337;52.978;6.310;2022-08-01T10:49:26;24.00;99.50
54429;DHT22;40337;52.978;6.310;2022-08-01T10:51:54;24.30;99.30
54429;DHT22;40337;52.978;6.310;2022-08-01T10:54:24;24.00;99.60
54429;DHT22;40337;52.978;6.310;2022-08-01T10:56:51;23.80;99.90
54429;DHT22;40337;52.978;6.310;2022-08-01T10:59:25;23.60;99.90
54429;DHT22;40337;52.978;6.310;2022-08-01T11:02:02;23.70;99.90
54429;DHT22;40337;52.978;6.310;2022-08-01T11:07:16;24.00;98.40
54429;DHT22;40337;52.978;6.310;2022-08-01T11:09:45;24.30;97.70
54429;DHT22;40337;52.978;6.310;2022-08-01T11:12:15;24.40;97.80
54429;DHT22;40337;52.978;6.310;2022-08-01T11:17:39;24.40;98.70
54429;DHT22;40337;52.978;6.310;2022-08-01T11:20:19;24.10;97.60
54429;DHT22;40337;52.978;6.310;2022-08-01T11:30:43;23.80;95.80
54429;DHT22;40337;52.978;6.310;2022-08-01T11:33:09;23.90;96.50
54429;DHT22;40337;52.978;6.310;2022-08-01T11:35:36;24.00;96.10
54429;DHT22;40337;52.978;6.310;2022-08-01T11:38:24;24.30;97.30
54429;DHT22;40337;52.978;6.310;2022-08-01T11:44:05;24.20;95.20
54429;DHT22;40337;52.978;6.310;2022-08-01T11:46:53;23.80;96.30
54429;DHT22;40337;52.978;6.310;2022-08-01T11:51:57;23.60;99.10
54429;DHT22;40337;52.978;6.310;2022-08-01T11:54:31;23.80;96.70
54429;DHT22;40337;52.978;6.310;2022-08-01T11:56:59;24.00;98.60
54429;DHT22;40337;52.978;6.310;2022-08-01T11:59:25;23.90;95.60
54429;DHT22;40337;52.978;6.310;2022-08-01T12:01:52;23.90;94.60
54429;DHT22;40337;52.978;6.310;2022-08-01T12:04:18;24.00;94.90
54429;DHT22;40337;52.978;6.310;2022-08-01T12:06:43;24.30;94.90
54429;DHT22;40337;52.978;6.310;2022-08-01T12:09:21;24.40;95.30
54429;DHT22;40337;52.978;6.310;2022-08-01T12:11:47;24.50;96.50
54429;DHT22;40337;52.978;6.310;2022-08-01T12:14:17;24.80;95.60
54429;DHT22;40337;52.978;6.310;2022-08-01T12:16:53;25.10;94.50
54429;DHT22;40337;52.978;6.310;2022-08-01T12:19:23;25.20;93.80
54429;DHT22;40337;52.978;6.310;2022-08-01T12:22:09;25.20;93.00
54429;DHT22;40337;52.978;6.310;2022-08-01T12:24:36;25.30;93.50
54429;DHT22;40337;52.978;6.310;2022-08-01T12:27:03;25.20;91.70
54429;DHT22;40337;52.978;6.310;2022-08-01T12:29:39;25.20;91.60
54429;DHT22;40337;52.978;6.310;2022-08-01T12:32:30;25.20;91.60
54429;DHT22;40337;52.978;6.310;2022-08-01T12:37:27;25.20;91.00
54429;DHT22;40337;52.978;6.310;2022-08-01T12:39:53;25.10;90.20
54429;DHT22;40337;52.978;6.310;2022-08-01T12:42:19;25.10;91.90
54429;DHT22;40337;52.978;6.310;2022-08-01T12:44:47;25.20;93.00
54429;DHT22;40337;52.978;6.310;2022-08-01T12:47:14;25.40;91.80
54429;DHT22;40337;52.978;6.310;2022-08-01T12:49:42;25.40;89.90
54429;DHT22;40337;52.978;6.310;2022-08-01T12:52:09;25.60;90.00
54429;DHT22;40337;52.978;6.310;2022-08-01T12:57:29;25.80;89.00
54429;DHT22;40337;52.978;6.310;2022-08-01T13:00:18;25.70;88.70
54429;DHT22;40337;52.978;6.310;2022-08-01T13:02:46;25.50;84.80
54429;DHT22;40337;52.978;6.310;2022-08-01T13:05:13;25.30;86.40
54429;DHT22;40337;52.978;6.310;2022-08-01T13:07:44;25.20;85.10
54429;DHT22;40337;52.978;6.310;2022-08-01T13:10:11;25.40;82.30
54429;DHT22;40337;52.978;6.310;2022-08-01T13:12:38;25.60;80.20
54429;DHT22;40337;52.978;6.310;2022-08-01T13:15:31;25.50;82.30
54429;DHT22;40337;52.978;6.310;2022-08-01T13:17:58;25.70;83.70
54429;DHT22;40337;52.978;6.310;2022-08-01T13:20:29;25.70;83.60
54429;DHT22;40337;52.978;6.310;2022-08-01T13:23:09;25.90;81.50
54429;DHT22;40337;52.978;6.310;2022-08-01T13:25:50;25.90;80.20
54429;DHT22;40337;52.978;6.310;2022-08-01T13:28:21;25.90;79.30
54429;DHT22;40337;52.978;6.310;2022-08-01T13:30:54;25.90;79.40
54429;DHT22;40337;52.978;6.310;2022-08-01T13:33:20;25.70;77.60
54429;DHT22;40337;52.978;6.310;2022-08-01T13:35:46;25.70;74.50
54429;DHT22;40337;52.978;6.310;2022-08-01T13:38:13;25.60;77.10
54429;DHT22;40337;52.978;6.310;2022-08-01T13:40:39;25.60;77.20
54429;DHT22;40337;52.978;6.310;2022-08-01T13:43:04;25.80;80.10
54429;DHT22;40337;52.978;6.310;2022-08-01T13:45:30;25.60;78.50
54429;DHT22;40337;52.978;6.310;2022-08-01T13:47:55;25.50;78.20
54429;DHT22;40337;52.978;6.310;2022-08-01T13:50:21;25.50;77.70
54429;DHT22;40337;52.978;6.310;2022-08-01T13:52:46;25.40;78.60
54429;DHT22;40337;52.978;6.310;2022-08-01T13:55:12;25.40;76.00
54429;DHT22;40337;52.978;6.310;2022-08-01T13:57:38;25.50;76.10
54429;DHT22;40337;52.978;6.310;2022-08-01T14:00:05;25.20;75.50
54429;DHT22;40337;52.978;6.310;2022-08-01T14:02:31;25.00;76.40
54429;DHT22;40337;52.978;6.310;2022-08-01T14:04:57;24.90;77.10
54429;DHT22;40337;52.978;6.310;2022-08-01T14:07:24;24.90;79.70
54429;DHT22;40337;52.978;6.310;2022-08-01T14:09:49;24.70;77.70
54429;DHT22;40337;52.978;6.310;2022-08-01T14:12:15;24.70;77.50
54429;DHT22;40337;52.978;6.310;2022-08-01T14:14:41;24.70;76.80
54429;DHT22;40337;52.978;6.310;2022-08-01T14:17:06;24.80;76.50
54429;DHT22;40337;52.978;6.310;2022-08-01T14:19:32;24.80;76.90
54429;DHT22;40337;52.978;6.310;2022-08-01T14:21:57;24.80;74.70
54429;DHT22;40337;52.978;6.310;2022-08-01T14:24:23;24.80;75.20
54429;DHT22;40337;52.978;6.310;2022-08-01T14:26:50;24.80;73.80
54429;DHT22;40337;52.978;6.310;2022-08-01T14:29:15;24.90;74.40
54429;DHT22;40337;52.978;6.310;2022-08-01T14:31:41;24.90;75.30
54429;DHT22;40337;52.978;6.310;2022-08-01T14:34:06;24.90;74.70
54429;DHT22;40337;52.978;6.310;2022-08-01T14:36:32;24.80;72.80
54429;DHT22;40337;52.978;6.310;2022-08-01T14:38:58;24.80;74.20
54429;DHT22;40337;52.978;6.310;2022-08-01T14:41:24;24.80;79.70
54429;DHT22;40337;52.978;6.310;2022-08-01T14:43:50;24.80;77.40
54429;DHT22;40337;52.978;6.310;2022-08-01T14:46:16;24.70;77.30
54429;DHT22;40337;52.978;6.310;2022-08-01T14:48:41;24.70;75.70
54429;DHT22;40337;52.978;6.310;2022-08-01T14:51:07;24.80;78.10
54429;DHT22;40337;52.978;6.310;2022-08-01T14:53:33;24.80;78.70
54429;DHT22;40337;52.978;6.310;2022-08-01T14:56:00;24.80;76.40
54429;DHT22;40337;52.978;6.310;2022-08-01T14:58:26;24.90;78.30
54429;DHT22;40337;52.978;6.310;2022-08-01T15:00:51;25.00;77.60
54429;DHT22;40337;52.978;6.310;2022-08-01T15:03:20;25.00;76.00
54429;DHT22;40337;52.978;6.310;2022-08-01T15:05:46;24.80;77.30
54429;DHT22;40337;52.978;6.310;2022-08-01T15:08:12;24.90;75.60
54429;DHT22;40337;52.978;6.310;2022-08-01T15:10:37;24.80;76.70
54429;DHT22;40337;52.978;6.310;2022-08-01T15:13:03;24.80;79.50
54429;DHT22;40337;52.978;6.310;2022-08-01T15:15:29;24.80;79.20
54429;DHT22;40337;52.978;6.310;2022-08-01T15:17:55;24.60;75.80
54429;DHT22;40337;52.978;6.310;2022-08-01T15:20:20;24.60;76.00
54429;DHT22;40337;52.978;6.310;2022-08-01T15:22:46;24.50;77.10
54429;DHT22;40337;52.978;6.310;2022-08-01T15:25:13;24.50;76.90
54429;DHT22;40337;52.978;6.310;2022-08-01T15:27:38;24.30;77.40
54429;DHT22;40337;52.978;6.310;2022-08-01T15:30:04;24.20;77.50
54429;DHT22;40337;52.978;6.310;2022-08-01T15:32:30;24.20;78.60
54429;DHT22;40337;52.978;6.310;2022-08-01T15:34:56;24.20;79.00
54429;DHT22;40337;52.978;6.310;2022-08-01T15:37:22;24.30;78.50
54429;DHT22;40337;52.978;6.310;2022-08-01T15:39:47;24.20;78.00
54429;DHT22;40337;52.978;6.310;2022-08-01T15:42:15;24.10;79.30
54429;DHT22;40337;52.978;6.310;2022-08-01T15:44:41;24.00;79.90
54429;DHT22;40337;52.978;6.310;2022-08-01T15:47:08;24.00;79.10
54429;DHT22;40337;52.978;6.310;2022-08-01T15:49:34;23.80;77.50
54429;DHT22;40337;52.978;6.310;2022-08-01T15:52:05;23.70;78.60
54429;DHT22;40337;52.978;6.310;2022-08-01T15:54:31;23.70;79.70
54429;DHT22;40337;52.978;6.310;2022-08-01T15:56:56;23.80;81.20
54429;DHT22;40337;52.978;6.310;2022-08-01T15:59:22;23.70;78.80
54429;DHT22;40337;52.978;6.310;2022-08-01T16:01:48;23.60;77.10
54429;DHT22;40337;52.978;6.310;2022-08-01T16:04:14;23.60;78.70
54429;DHT22;40337;52.978;6.310;2022-08-01T16:06:41;23.70;79.80
54429;DHT22;40337;52.978;6.310;2022-08-01T16:09:07;23.70;80.60